sensor_id;sensor_type;location;lat;lon;timestamp;pressure;altitude;pressure_sealevel;temperature
72278;BMP280;61204;49.980;8.358;2022-08-24T00:01:23;100771.19;;;22.13
72278;BMP280;61204;49.980;8.358;2022-08-24T00:03:53;100772.56;;;22.12
72278;BMP280;61204;49.980;8.358;2022-08-24T00:06:23;100767.53;;;22.06
72278;BMP280;61204;49.980;8.358;2022-08-24T00:08:52;100764.75;;;22.06
72278;BMP280;61204;49.980;8.358;2022-08-24T00:11:23;100774.47;;;22.03
72278;BMP280;61204;49.980;8.358;2022-08-24T00:13:49;100775.16;;;22.04
72278;BMP280;61204;49.980;8.358;2022-08-24T00:16:19;100776.38;;;21.97
72278;BMP280;61204;49.980;8.358;2022-08-24T00:18:45;100770.75;;;21.95
72278;BMP280;61204;49.980;8.358;2022-08-24T00:21:13;100773.59;;;21.97
72278;BMP280;61204;49.980;8.358;2022-08-24T00:23:39;100772.97;;;22.00
72278;BMP280;61204;49.980;8.358;2022-08-24T00:26:06;100770.19;;;22.00
72278;BMP280;61204;49.980;8.358;2022-08-24T00:28:33;100770.09;;;21.96
72278;BMP280;61204;49.980;8.358;2022-08-24T00:30:59;100766.53;;;21.94
72278;BMP280;61204;49.980;8.358;2022-08-24T00:33:25;100779.13;;;21.95
72278;BMP280;61204;49.980;8.358;2022-08-24T00:35:51;100781.06;;;21.88
72278;BMP280;61204;49.980;8.358;2022-08-24T00:38:16;100782.31;;;21.83
72278;BMP280;61204;49.980;8.358;2022-08-24T00:40:45;100787.69;;;21.75
72278;BMP280;61204;49.980;8.358;2022-08-24T00:43:17;100777.72;;;21.68
72278;BMP280;61204;49.980;8.358;2022-08-24T00:45:58;100782.63;;;21.67
72278;BMP280;61204;49.980;8.358;2022-08-24T00:48:45;100779.72;;;21.63
72278;BMP280;61204;49.980;8.358;2022-08-24T00:51:21;100786.59;;;21.60
72278;BMP280;61204;49.980;8.358;2022-08-24T00:53:57;100778.41;;;21.66
72278;BMP280;61204;49.980;8.358;2022-08-24T00:56:41;100782.56;;;21.65
72278;BMP280;61204;49.980;8.358;2022-08-24T00:59:21;100772.22;;;21.70
72278;BMP280;61204;49.980;8.358;2022-08-24T01:01:55;100782.56;;;21.65
72278;BMP280;61204;49.980;8.358;2022-08-24T01:04:31;100776.34;;;21.69
72278;BMP280;61204;49.980;8.358;2022-08-24T01:07:07;100772.22;;;21.70
72278;BMP280;61204;49.980;8.358;2022-08-24T01:09:32;100775.34;;;21.56
72278;BMP280;61204;49.980;8.358;2022-08-24T01:11:58;100769.97;;;21.64
72278;BMP280;61204;49.980;8.358;2022-08-24T01:14:26;100772.22;;;21.70
72278;BMP280;61204;49.980;8.358;2022-08-24T01:16:55;100773.34;;;21.59
72278;BMP280;61204;49.980;8.358;2022-08-24T01:19:47;100777.44;;;21.55
72278;BMP280;61204;49.980;8.358;2022-08-24T01:25:29;100783.44;;;21.46
72278;BMP280;61204;49.980;8.358;2022-08-24T01:28:03;100780.75;;;21.50
72278;BMP280;61204;49.980;8.358;2022-08-24T01:30:35;100773.66;;;21.45
72278;BMP280;61204;49.980;8.358;2022-08-24T01:33:04;100782.41;;;21.33
72278;BMP280;61204;49.980;8.358;2022-08-24T01:35:35;100781.16;;;21.38
72278;BMP280;61204;49.980;8.358;2022-08-24T01:38:08;100776.94;;;21.37
72278;BMP280;61204;49.980;8.358;2022-08-24T01:40:43;100777.22;;;21.21
72278;BMP280;61204;49.980;8.358;2022-08-24T01:43:17;100784.31;;;21.27
72278;BMP280;61204;49.980;8.358;2022-08-24T01:45:43;100785.38;;;21.15
72278;BMP280;61204;49.980;8.358;2022-08-24T01:48:09;100785.88;;;21.08
72278;BMP280;61204;49.980;8.358;2022-08-24T01:50:36;100784.38;;;21.05
72278;BMP280;61204;49.980;8.358;2022-08-24T01:53:04;100791.44;;;21.08
72278;BMP280;61204;49.980;8.358;2022-08-24T01:55:30;100791.41;;;21.06
72278;BMP280;61204;49.980;8.358;2022-08-24T01:57:58;100795.13;;;20.90
72278;BMP280;61204;49.980;8.358;2022-08-24T02:00:25;100794.34;;;20.88
72278;BMP280;61204;49.980;8.358;2022-08-24T02:02:53;100803.56;;;20.92
72278;BMP280;61204;49.980;8.358;2022-08-24T02:05:21;100799.47;;;20.96
72278;BMP280;61204;49.980;8.358;2022-08-24T02:07:49;100795.72;;;20.87
72278;BMP280;61204;49.980;8.358;2022-08-24T02:10:16;100805.38;;;20.84
72278;BMP280;61204;49.980;8.358;2022-08-24T02:12:46;100801.19;;;20.83
72278;BMP280;61204;49.980;8.358;2022-08-24T02:15:33;100800.31;;;20.78
72278;BMP280;61204;49.980;8.358;2022-08-24T02:18:05;100803.84;;;20.79
72278;BMP280;61204;49.980;8.358;2022-08-24T02:20:34;100812.25;;;20.81
72278;BMP280;61204;49.980;8.358;2022-08-24T02:23:04;100803.66;;;20.73
72278;BMP280;61204;49.980;8.358;2022-08-24T02:25:31;100803.00;;;20.74
72278;BMP280;61204;49.980;8.358;2022-08-24T02:27:59;100806.38;;;20.71
72278;BMP280;61204;49.980;8.358;2022-08-24T02:30:27;100812.69;;;20.71
72278;BMP280;61204;49.980;8.358;2022-08-24T02:32:55;100810.38;;;20.66
72278;BMP280;61204;49.980;8.358;2022-08-24T02:35:24;100813.06;;;20.61
72278;BMP280;61204;49.980;8.358;2022-08-24T02:37:53;100806.78;;;20.61
72278;BMP280;61204;49.980;8.358;2022-08-24T02:40:19;100813.53;;;20.54
72278;BMP280;61204;49.980;8.358;2022-08-24T02:42:46;100805.88;;;20.54
72278;BMP280;61204;49.980;8.358;2022-08-24T02:45:13;100802.59;;;20.60
72278;BMP280;61204;49.980;8.358;2022-08-24T02:47:38;100799.59;;;20.54
72278;BMP280;61204;49.980;8.358;2022-08-24T02:50:08;100805.28;;;20.58
72278;BMP280;61204;49.980;8.358;2022-08-24T02:52:40;100800.31;;;20.54
72278;BMP280;61204;49.980;8.358;2022-08-24T02:55:12;100812.09;;;20.53
72278;BMP280;61204;49.980;8.358;2022-08-24T02:57:41;100805.25;;;20.56
72278;BMP280;61204;49.980;8.358;2022-08-24T03:00:11;100812.75;;;20.51
72278;BMP280;61204;49.980;8.358;2022-08-24T03:02:40;100810.41;;;20.44
72278;BMP280;61204;49.980;8.358;2022-08-24T03:05:07;100810.41;;;20.44
72278;BMP280;61204;49.980;8.358;2022-08-24T03:07:34;100822.66;;;20.35
72278;BMP280;61204;49.980;8.358;2022-08-24T03:10:00;100807.34;;;20.36
72278;BMP280;61204;49.980;8.358;2022-08-24T03:12:29;100815.81;;;20.38
72278;BMP280;61204;49.980;8.358;2022-08-24T03:14:56;100819.22;;;20.36
72278;BMP280;61204;49.980;8.358;2022-08-24T03:17:21;100817.00;;;20.33
72278;BMP280;61204;49.980;8.358;2022-08-24T03:19:48;100818.47;;;20.34
72278;BMP280;61204;49.980;8.358;2022-08-24T03:22:15;100816.84;;;20.26
72278;BMP280;61204;49.980;8.358;2022-08-24T03:24:41;100825.31;;;20.31
72278;BMP280;61204;49.980;8.358;2022-08-24T03:27:06;100818.25;;;20.27
72278;BMP280;61204;49.980;8.358;2022-08-24T03:29:32;100818.91;;;20.26
72278;BMP280;61204;49.980;8.358;2022-08-24T03:31:59;100809.75;;;20.23
72278;BMP280;61204;49.980;8.358;2022-08-24T03:34:25;100812.41;;;20.19
72278;BMP280;61204;49.980;8.358;2022-08-24T03:36:52;100810.09;;;20.12
72278;BMP280;61204;49.980;8.358;2022-08-24T03:39:17;100806.72;;;20.15
72278;BMP280;61204;49.980;8.358;2022-08-24T03:41:43;100807.22;;;20.10
72278;BMP280;61204;49.980;8.358;2022-08-24T03:44:09;100807.88;;;20.08
72278;BMP280;61204;49.980;8.358;2022-08-24T03:46:36;100807.16;;;20.08
72278;BMP280;61204;49.980;8.358;2022-08-24T03:49:05;100799.06;;;20.16
72278;BMP280;61204;49.980;8.358;2022-08-24T03:51:36;100802.56;;;20.16
72278;BMP280;61204;49.980;8.358;2022-08-24T03:54:05;100804.38;;;20.08
72278;BMP280;61204;49.980;8.358;2022-08-24T03:56:37;100805.72;;;20.07
72278;BMP280;61204;49.980;8.358;2022-08-24T03:59:05;100812.09;;;20.09
72278;BMP280;61204;49.980;8.358;2022-08-24T04:01:33;100802.31;;;20.08
72278;BMP280;61204;49.980;8.358;2022-08-24T04:04:01;100810.56;;;20.06
72278;BMP280;61204;49.980;8.358;2022-08-24T04:06:28;100807.03;;;20.04
72278;BMP280;61204;49.980;8.358;2022-08-24T04:08:54;100806.44;;;20.07
72278;BMP280;61204;49.980;8.358;2022-08-24T04:11:24;100809.03;;;20.01
72278;BMP280;61204;49.980;8.358;2022-08-24T04:13:54;100807.47;;;19.96
72278;BMP280;61204;49.980;8.358;2022-08-24T04:16:23;100816.69;;;20.01
72278;BMP280;61204;49.980;8.358;2022-08-24T04:18:51;100815.88;;;19.98
72278;BMP280;61204;49.980;8.358;2022-08-24T04:21:24;100815.03;;;19.93
72278;BMP280;61204;49.980;8.358;2022-08-24T04:23:59;100810.16;;;19.94
72278;BMP280;61204;49.980;8.358;2022-08-24T04:26:29;100817.75;;;19.91
72278;BMP280;61204;49.980;8.358;2022-08-24T04:28:56;100816.38;;;19.92
72278;BMP280;61204;49.980;8.358;2022-08-24T04:31:24;100813.59;;;19.92
72278;BMP280;61204;49.980;8.358;2022-08-24T04:33:51;100815.13;;;19.95
72278;BMP280;61204;49.980;8.358;2022-08-24T04:36:19;100811.50;;;20.13
72278;BMP280;61204;49.980;8.358;2022-08-24T04:38:47;100817.38;;;20.01
72278;BMP280;61204;49.980;8.358;2022-08-24T04:41:15;100816.72;;;20.03
72278;BMP280;61204;49.980;8.358;2022-08-24T04:43:47;100825.28;;;20.09
72278;BMP280;61204;49.980;8.358;2022-08-24T04:46:16;100828.91;;;20.13
72278;BMP280;61204;49.980;8.358;2022-08-24T04:48:46;100824.25;;;20.20
72278;BMP280;61204;49.980;8.358;2022-08-24T04:51:15;100830.06;;;20.26
72278;BMP280;61204;49.980;8.358;2022-08-24T04:53:44;100833.09;;;20.34
72278;BMP280;61204;49.980;8.358;2022-08-24T04:56:15;100826.41;;;20.43
72278;BMP280;61204;49.980;8.358;2022-08-24T04:58:49;100829.59;;;20.55
72278;BMP280;61204;49.980;8.358;2022-08-24T05:01:21;100838.13;;;20.61
72278;BMP280;61204;49.980;8.358;2022-08-24T05:03:51;100844.16;;;20.76
72278;BMP280;61204;49.980;8.358;2022-08-24T05:06:24;100837.59;;;20.89
72278;BMP280;61204;49.980;8.358;2022-08-24T05:08:53;100843.41;;;20.97
72278;BMP280;61204;49.980;8.358;2022-08-24T05:11:21;100845.09;;;21.06
72278;BMP280;61204;49.980;8.358;2022-08-24T05:13:50;100845.44;;;21.18
72278;BMP280;61204;49.980;8.358;2022-08-24T05:16:18;100855.50;;;21.30
72278;BMP280;61204;49.980;8.358;2022-08-24T05:18:46;100858.00;;;21.43
72278;BMP280;61204;49.980;8.358;2022-08-24T05:21:17;100852.19;;;21.61
72278;BMP280;61204;49.980;8.358;2022-08-24T05:23:45;100853.88;;;21.72
72278;BMP280;61204;49.980;8.358;2022-08-24T05:26:18;100850.03;;;21.83
72278;BMP280;61204;49.980;8.358;2022-08-24T05:28:53;100858.38;;;21.83
72278;BMP280;61204;49.980;8.358;2022-08-24T05:31:23;100860.72;;;21.93
72278;BMP280;61204;49.980;8.358;2022-08-24T05:33:52;100862.38;;;22.02
72278;BMP280;61204;49.980;8.358;2022-08-24T05:36:23;100862.19;;;22.22
72278;BMP280;61204;49.980;8.358;2022-08-24T05:38:55;100863.81;;;22.03
72278;BMP280;61204;49.980;8.358;2022-08-24T05:41:24;100857.72;;;21.85
72278;BMP280;61204;49.980;8.358;2022-08-24T05:43:50;100862.13;;;21.66
72278;BMP280;61204;49.980;8.358;2022-08-24T05:46:17;100866.34;;;21.67
72278;BMP280;61204;49.980;8.358;2022-08-24T05:48:44;100865.25;;;21.78
72278;BMP280;61204;49.980;8.358;2022-08-24T05:51:11;100865.00;;;21.96
72278;BMP280;61204;49.980;8.358;2022-08-24T05:53:39;100868.66;;;22.03
72278;BMP280;61204;49.980;8.358;2022-08-24T05:56:09;100863.81;;;22.03
72278;BMP280;61204;49.980;8.358;2022-08-24T05:58:39;100863.72;;;22.01
72278;BMP280;61204;49.980;8.358;2022-08-24T06:01:13;100868.66;;;22.03
72278;BMP280;61204;49.980;8.358;2022-08-24T06:03:50;100871.69;;;22.11
72278;BMP280;61204;49.980;8.358;2022-08-24T06:06:18;100869.63;;;22.13
72278;BMP280;61204;49.980;8.358;2022-08-24T06:08:50;100877.59;;;22.25
72278;BMP280;61204;49.980;8.358;2022-08-24T06:11:25;100882.13;;;22.38
72278;BMP280;61204;49.980;8.358;2022-08-24T06:14:11;100883.28;;;22.59
72278;BMP280;61204;49.980;8.358;2022-08-24T06:16:42;100875.41;;;22.81
72278;BMP280;61204;49.980;8.358;2022-08-24T06:19:14;100879.41;;;23.02
72278;BMP280;61204;49.980;8.358;2022-08-24T06:21:44;100883.94;;;23.20
72278;BMP280;61204;49.980;8.358;2022-08-24T06:24:12;100885.81;;;23.43
72278;BMP280;61204;49.980;8.358;2022-08-24T06:26:41;100880.66;;;23.67
72278;BMP280;61204;49.980;8.358;2022-08-24T06:29:28;100886.81;;;23.58
72278;BMP280;61204;49.980;8.358;2022-08-24T06:31:54;100886.16;;;23.59
72278;BMP280;61204;49.980;8.358;2022-08-24T06:34:21;100883.47;;;23.67
72278;BMP280;61204;49.980;8.358;2022-08-24T06:36:50;100886.19;;;23.99
72278;BMP280;61204;49.980;8.358;2022-08-24T06:39:17;100880.00;;;24.09
72278;BMP280;61204;49.980;8.358;2022-08-24T06:41:43;100883.34;;;24.41
72278;BMP280;61204;49.980;8.358;2022-08-24T06:44:10;100881.69;;;24.72
72278;BMP280;61204;49.980;8.358;2022-08-24T06:46:38;100891.41;;;24.19
72278;BMP280;61204;49.980;8.358;2022-08-24T06:49:04;100887.88;;;24.65
72278;BMP280;61204;49.980;8.358;2022-08-24T06:51:30;100892.47;;;24.90
72278;BMP280;61204;49.980;8.358;2022-08-24T06:53:56;100899.50;;;24.95
72278;BMP280;61204;49.980;8.358;2022-08-24T06:56:22;100880.34;;;25.32
72278;BMP280;61204;49.980;8.358;2022-08-24T06:58:51;100894.38;;;25.34
72278;BMP280;61204;49.980;8.358;2022-08-24T07:01:20;100894.66;;;25.58
72278;BMP280;61204;49.980;8.358;2022-08-24T07:03:50;100892.16;;;25.22
72278;BMP280;61204;49.980;8.358;2022-08-24T07:06:17;100891.59;;;25.38
72278;BMP280;61204;49.980;8.358;2022-08-24T07:08:43;100889.16;;;25.68
72278;BMP280;61204;49.980;8.358;2022-08-24T07:11:11;100897.75;;;25.89
72278;BMP280;61204;49.980;8.358;2022-08-24T07:13:39;100900.81;;;26.19
72278;BMP280;61204;49.980;8.358;2022-08-24T07:16:07;100889.56;;;26.19
72278;BMP280;61204;49.980;8.358;2022-08-24T07:18:34;100898.03;;;26.27
72278;BMP280;61204;49.980;8.358;2022-08-24T07:21:02;100907.25;;;26.36
72278;BMP280;61204;49.980;8.358;2022-08-24T07:23:29;100903.69;;;26.25
72278;BMP280;61204;49.980;8.358;2022-08-24T07:25:56;100903.84;;;26.52
72278;BMP280;61204;49.980;8.358;2022-08-24T07:28:28;100907.47;;;26.68
72278;BMP280;61204;49.980;8.358;2022-08-24T07:30:53;100908.22;;;26.79
72278;BMP280;61204;49.980;8.358;2022-08-24T07:33:19;100904.59;;;26.62
72278;BMP280;61204;49.980;8.358;2022-08-24T07:35:45;100910.41;;;26.95
72278;BMP280;61204;49.980;8.358;2022-08-24T07:38:11;100909.09;;;27.22
72278;BMP280;61204;49.980;8.358;2022-08-24T07:40:37;100904.94;;;27.53
72278;BMP280;61204;49.980;8.358;2022-08-24T07:43:03;100918.34;;;27.61
72278;BMP280;61204;49.980;8.358;2022-08-24T07:45:29;100913.31;;;27.21
72278;BMP280;61204;49.980;8.358;2022-08-24T07:47:55;100909.09;;;27.20
72278;BMP280;61204;49.980;8.358;2022-08-24T07:50:21;100907.06;;;27.81
72278;BMP280;61204;49.980;8.358;2022-08-24T07:52:47;100911.31;;;27.97
72278;BMP280;61204;49.980;8.358;2022-08-24T07:55:13;100907.69;;;28.53
72278;BMP280;61204;49.980;8.358;2022-08-24T07:57:40;100912.56;;;28.79
72278;BMP280;61204;49.980;8.358;2022-08-24T08:00:11;100914.03;;;28.59
72278;BMP280;61204;49.980;8.358;2022-08-24T08:02:41;100909.63;;;29.05
72278;BMP280;61204;49.980;8.358;2022-08-24T08:05:12;100914.25;;;29.53
72278;BMP280;61204;49.980;8.358;2022-08-24T08:07:40;100908.56;;;29.61
72278;BMP280;61204;49.980;8.358;2022-08-24T08:10:07;100920.81;;;30.11
72278;BMP280;61204;49.980;8.358;2022-08-24T08:12:35;100928.31;;;29.59
72278;BMP280;61204;49.980;8.358;2022-08-24T08:15:01;100919.97;;;30.27
72278;BMP280;61204;49.980;8.358;2022-08-24T08:17:28;100929.03;;;30.97
72278;BMP280;61204;49.980;8.358;2022-08-24T08:19:54;100927.38;;;31.14
72278;BMP280;61204;49.980;8.358;2022-08-24T08:22:21;100927.53;;;31.04
72278;BMP280;61204;49.980;8.358;2022-08-24T08:25:08;100938.38;;;30.85
72278;BMP280;61204;49.980;8.358;2022-08-24T08:27:34;100935.09;;;30.66
72278;BMP280;61204;49.980;8.358;2022-08-24T08:30:04;100941.25;;;31.34
72278;BMP280;61204;49.980;8.358;2022-08-24T08:32:31;100929.72;;;31.88
72278;BMP280;61204;49.980;8.358;2022-08-24T08:34:56;100925.25;;;31.60
72278;BMP280;61204;49.980;8.358;2022-08-24T08:37:24;100940.53;;;32.18
72278;BMP280;61204;49.980;8.358;2022-08-24T08:39:50;100932.34;;;31.59
72278;BMP280;61204;49.980;8.358;2022-08-24T08:42:29;100925.59;;;31.82
72278;BMP280;61204;49.980;8.358;2022-08-24T08:54:34;100931.81;;;33.27
72278;BMP280;61204;49.980;8.358;2022-08-24T09:00:07;100927.03;;;33.48
72278;BMP280;61204;49.980;8.358;2022-08-24T09:05:53;100929.63;;;33.29
72278;BMP280;61204;49.980;8.358;2022-08-24T09:08:52;100929.34;;;34.20
72278;BMP280;61204;49.980;8.358;2022-08-24T09:12:02;100927.22;;;33.11
72278;BMP280;61204;49.980;8.358;2022-08-24T09:21:02;100919.25;;;34.50
72278;BMP280;61204;49.980;8.358;2022-08-24T09:33:05;100914.41;;;36.52
72278;BMP280;61204;49.980;8.358;2022-08-24T09:36:17;100915.03;;;36.17
72278;BMP280;61204;49.980;8.358;2022-08-24T09:39:04;100912.31;;;36.32
72278;BMP280;61204;49.980;8.358;2022-08-24T09:48:17;100919.19;;;36.01
72278;BMP280;61204;49.980;8.358;2022-08-24T09:54:39;100922.84;;;37.58
72278;BMP280;61204;49.980;8.358;2022-08-24T10:04:32;100914.78;;;38.70
72278;BMP280;61204;49.980;8.358;2022-08-24T10:07:23;100906.78;;;37.97
72278;BMP280;61204;49.980;8.358;2022-08-24T10:10:31;100905.44;;;37.96
72278;BMP280;61204;49.980;8.358;2022-08-24T10:13:24;100901.81;;;37.64
72278;BMP280;61204;49.980;8.358;2022-08-24T10:19:23;100901.25;;;37.61
72278;BMP280;61204;49.980;8.358;2022-08-24T10:35:13;100889.09;;;39.10
72278;BMP280;61204;49.980;8.358;2022-08-24T10:47:34;100879.13;;;38.37
72278;BMP280;61204;49.980;8.358;2022-08-24T10:50:19;100879.56;;;38.86
72278;BMP280;61204;49.980;8.358;2022-08-24T10:53:19;100886.03;;;38.99
72278;BMP280;61204;49.980;8.358;2022-08-24T10:56:13;100882.75;;;38.65
72278;BMP280;61204;49.980;8.358;2022-08-24T11:01:35;100883.06;;;38.74
72278;BMP280;61204;49.980;8.358;2022-08-24T11:04:27;100880.13;;;39.58
72278;BMP280;61204;49.980;8.358;2022-08-24T11:09:57;100879.28;;;39.19
72278;BMP280;61204;49.980;8.358;2022-08-24T11:18:00;100872.25;;;40.21
72278;BMP280;61204;49.980;8.358;2022-08-24T11:20:43;100861.34;;;39.33
72278;BMP280;61204;49.980;8.358;2022-08-24T11:23:21;100867.66;;;39.89
72278;BMP280;61204;49.980;8.358;2022-08-24T11:26:05;100857.34;;;39.94
72278;BMP280;61204;49.980;8.358;2022-08-24T11:28:51;100860.56;;;38.51
72278;BMP280;61204;49.980;8.358;2022-08-24T11:31:38;100859.63;;;39.78
72278;BMP280;61204;49.980;8.358;2022-08-24T11:34:09;100849.16;;;39.06
72278;BMP280;61204;49.980;8.358;2022-08-24T11:36:42;100857.22;;;39.83
72278;BMP280;61204;49.980;8.358;2022-08-24T11:51:47;100850.88;;;41.15
72278;BMP280;61204;49.980;8.358;2022-08-24T12:00:38;100844.66;;;41.68
72278;BMP280;61204;49.980;8.358;2022-08-24T12:03:29;100848.25;;;39.89
72278;BMP280;61204;49.980;8.358;2022-08-24T12:06:31;100845.22;;;40.54
72278;BMP280;61204;49.980;8.358;2022-08-24T12:15:01;100814.25;;;41.37
72278;BMP280;61204;49.980;8.358;2022-08-24T12:17:56;100824.16;;;40.09
72278;BMP280;61204;49.980;8.358;2022-08-24T12:21:06;100830.44;;;39.87
72278;BMP280;61204;49.980;8.358;2022-08-24T12:23:41;100831.16;;;40.12
72278;BMP280;61204;49.980;8.358;2022-08-24T12:29:17;100823.06;;;41.46
72278;BMP280;61204;49.980;8.358;2022-08-24T12:32:05;100809.16;;;40.81
72278;BMP280;61204;49.980;8.358;2022-08-24T12:38:25;100801.72;;;42.19
72278;BMP280;61204;49.980;8.358;2022-08-24T12:41:25;100816.31;;;41.39
72278;BMP280;61204;49.980;8.358;2022-08-24T12:44:12;100805.81;;;42.22
72278;BMP280;61204;49.980;8.358;2022-08-24T12:46:41;100812.53;;;42.19
72278;BMP280;61204;49.980;8.358;2022-08-24T12:49:26;100807.78;;;42.98
72278;BMP280;61204;49.980;8.358;2022-08-24T12:56:28;100810.72;;;42.56
72278;BMP280;61204;49.980;8.358;2022-08-24T13:10:34;100805.19;;;37.66
72278;BMP280;61204;49.980;8.358;2022-08-24T13:13:14;100790.91;;;38.54
72278;BMP280;61204;49.980;8.358;2022-08-24T13:23:14;100792.34;;;39.88
72278;BMP280;61204;49.980;8.358;2022-08-24T13:26:01;100785.34;;;39.98
72278;BMP280;61204;49.980;8.358;2022-08-24T13:28:51;100787.16;;;38.58
72278;BMP280;61204;49.980;8.358;2022-08-24T13:31:31;100783.44;;;37.42
72278;BMP280;61204;49.980;8.358;2022-08-24T13:43:03;100786.16;;;36.10
72278;BMP280;61204;49.980;8.358;2022-08-24T13:51:16;100774.38;;;38.70
72278;BMP280;61204;49.980;8.358;2022-08-24T13:54:29;100774.81;;;39.16
72278;BMP280;61204;49.980;8.358;2022-08-24T13:57:40;100769.63;;;37.47
72278;BMP280;61204;49.980;8.358;2022-08-24T14:03:18;100760.53;;;36.08
72278;BMP280;61204;49.980;8.358;2022-08-24T14:06:32;100765.53;;;36.27
72278;BMP280;61204;49.980;8.358;2022-08-24T14:09:31;100769.19;;;35.50
72278;BMP280;61204;49.980;8.358;2022-08-24T14:18:59;100764.78;;;36.95
72278;BMP280;61204;49.980;8.358;2022-08-24T14:22:12;100760.09;;;36.02
72278;BMP280;61204;49.980;8.358;2022-08-24T14:25:19;100754.75;;;35.36
72278;BMP280;61204;49.980;8.358;2022-08-24T14:35:43;100741.91;;;37.12
72278;BMP280;61204;49.980;8.358;2022-08-24T14:41:45;100747.28;;;37.20
72278;BMP280;61204;49.980;8.358;2022-08-24T14:51:05;100734.16;;;36.77
72278;BMP280;61204;49.980;8.358;2022-08-24T15:06:50;100724.69;;;36.97
72278;BMP280;61204;49.980;8.358;2022-08-24T15:09:30;100727.97;;;35.47
72278;BMP280;61204;49.980;8.358;2022-08-24T15:15:37;100718.09;;;35.63
72278;BMP280;61204;49.980;8.358;2022-08-24T15:18:24;100706.31;;;34.96
72278;BMP280;61204;49.980;8.358;2022-08-24T15:21:49;100710.38;;;35.78
72278;BMP280;61204;49.980;8.358;2022-08-24T15:28:14;100699.19;;;36.43
72278;BMP280;61204;49.980;8.358;2022-08-24T15:31:01;100702.72;;;35.91
72278;BMP280;61204;49.980;8.358;2022-08-24T15:33:49;100703.13;;;36.17
72278;BMP280;61204;49.980;8.358;2022-08-24T15:36:27;100698.44;;;36.92
72278;BMP280;61204;49.980;8.358;2022-08-24T15:38:57;100702.19;;;37.66
72278;BMP280;61204;49.980;8.358;2022-08-24T15:41:31;100699.97;;;37.84
72278;BMP280;61204;49.980;8.358;2022-08-24T15:44:21;100702.09;;;37.98
72278;BMP280;61204;49.980;8.358;2022-08-24T15:46:56;100704.66;;;36.82
72278;BMP280;61204;49.980;8.358;2022-08-24T15:49:33;100697.28;;;35.66
72278;BMP280;61204;49.980;8.358;2022-08-24T15:52:36;100695.06;;;35.32
72278;BMP280;61204;49.980;8.358;2022-08-24T15:55:44;100698.81;;;35.26
72278;BMP280;61204;49.980;8.358;2022-08-24T16:06:42;100694.91;;;35.36
72278;BMP280;61204;49.980;8.358;2022-08-24T16:12:08;100700.13;;;34.89
72278;BMP280;61204;49.980;8.358;2022-08-24T16:14:52;100698.88;;;34.20
72278;BMP280;61204;49.980;8.358;2022-08-24T16:17:45;100693.81;;;34.66
72278;BMP280;61204;49.980;8.358;2022-08-24T16:22:54;100686.22;;;34.59
72278;BMP280;61204;49.980;8.358;2022-08-24T16:25:32;100691.41;;;33.63
72278;BMP280;61204;49.980;8.358;2022-08-24T16:28:12;100693.72;;;33.56
72278;BMP280;61204;49.980;8.358;2022-08-24T16:31:02;100694.44;;;33.80
72278;BMP280;61204;49.980;8.358;2022-08-24T16:35:58;100689.69;;;33.97
72278;BMP280;61204;49.980;8.358;2022-08-24T16:38:33;100691.47;;;34.29
72278;BMP280;61204;49.980;8.358;2022-08-24T16:41:05;100697.25;;;33.82
72278;BMP280;61204;49.980;8.358;2022-08-24T16:43:37;100694.31;;;33.36
72278;BMP280;61204;49.980;8.358;2022-08-24T16:46:08;100692.13;;;32.85
72278;BMP280;61204;49.980;8.358;2022-08-24T16:48:39;100687.72;;;32.90
72278;BMP280;61204;49.980;8.358;2022-08-24T16:51:05;100688.19;;;32.72
72278;BMP280;61204;49.980;8.358;2022-08-24T16:53:30;100684.34;;;32.83
72278;BMP280;61204;49.980;8.358;2022-08-24T16:55:57;100681.53;;;32.83
72278;BMP280;61204;49.980;8.358;2022-08-24T16:58:30;100684.09;;;32.93
72278;BMP280;61204;49.980;8.358;2022-08-24T17:00:59;100678.47;;;33.18
72278;BMP280;61204;49.980;8.358;2022-08-24T17:03:27;100678.59;;;32.87
72278;BMP280;61204;49.980;8.358;2022-08-24T17:05:55;100694.41;;;32.78
72278;BMP280;61204;49.980;8.358;2022-08-24T17:08:22;100683.34;;;32.68
72278;BMP280;61204;49.980;8.358;2022-08-24T17:10:51;100687.06;;;32.60
72278;BMP280;61204;49.980;8.358;2022-08-24T17:13:17;100689.41;;;32.52
72278;BMP280;61204;49.980;8.358;2022-08-24T17:15:44;100685.97;;;32.47
72278;BMP280;61204;49.980;8.358;2022-08-24T17:18:11;100693.84;;;32.45
72278;BMP280;61204;49.980;8.358;2022-08-24T17:20:38;100693.56;;;32.26
72278;BMP280;61204;49.980;8.358;2022-08-24T17:23:06;100695.09;;;32.21
72278;BMP280;61204;49.980;8.358;2022-08-24T17:25:32;100691.78;;;32.10
72278;BMP280;61204;49.980;8.358;2022-08-24T17:28:02;100696.25;;;32.01
72278;BMP280;61204;49.980;8.358;2022-08-24T17:30:28;100704.16;;;31.97
72278;BMP280;61204;49.980;8.358;2022-08-24T17:32:54;100695.19;;;31.86
72278;BMP280;61204;49.980;8.358;2022-08-24T17:35:20;100700.88;;;31.84
72278;BMP280;61204;49.980;8.358;2022-08-24T17:37:48;100703.09;;;31.79
72278;BMP280;61204;49.980;8.358;2022-08-24T17:40:20;100703.41;;;31.98
72278;BMP280;61204;49.980;8.358;2022-08-24T17:42:50;100710.53;;;31.97
72278;BMP280;61204;49.980;8.358;2022-08-24T17:45:16;100706.13;;;31.69
72278;BMP280;61204;49.980;8.358;2022-08-24T17:47:42;100701.56;;;31.49
72278;BMP280;61204;49.980;8.358;2022-08-24T17:50:10;100710.16;;;31.43
72278;BMP280;61204;49.980;8.358;2022-08-24T17:52:39;100706.19;;;31.30
72278;BMP280;61204;49.980;8.358;2022-08-24T17:55:08;100714.78;;;31.26
72278;BMP280;61204;49.980;8.358;2022-08-24T17:57:37;100716.97;;;31.22
72278;BMP280;61204;49.980;8.358;2022-08-24T18:00:09;100720.38;;;31.28
72278;BMP280;61204;49.980;8.358;2022-08-24T18:02:38;100715.47;;;31.25
72278;BMP280;61204;49.980;8.358;2022-08-24T18:05:08;100716.41;;;31.13
72278;BMP280;61204;49.980;8.358;2022-08-24T18:07:36;100727.94;;;31.03
72278;BMP280;61204;49.980;8.358;2022-08-24T18:10:08;100723.66;;;31.02
72278;BMP280;61204;49.980;8.358;2022-08-24T18:12:35;100720.19;;;30.99
72278;BMP280;61204;49.980;8.358;2022-08-24T18:15:01;100723.25;;;30.85